Yantic, Connecticut
Current Conditions -  °F | °C
As of 11:52 PM on Tuesday 21 Oct 2014 (Local Time) from KIJD Reporting Station
Overcast Overcast  
Wind Chill: 14°   Ceiling: 2300
Heat Index: 14°   Visibility: 10mi
Dew Point: 11°   Wind: 6mph
Humidity: 81%   Direction: 40°NE
Pressure: 29.96"   Gusts: NA
Location:  41.56°N, 72.12°W
Report Text: KIJD 220352Z AUTO 04005KT 10SM OVC023 14/11 A2996 RMK AO2 SLP145 T01440111
Loading
Personal Weather Stations






























Interactive Weather Map
Tropical Storm Tracking
New forecast layout! Learn more

10-Day Weather Forecast

Advertisements
Track Severe Weather on mobile